aviador You're here:

KRFD Decoded Metar

ROCKFORD in IL, USA
Report Time2018-07-21 18:54:00
UTC Time2018-07-21 19:03:56
Flight Rules vfr VFR
Wind350° at 11 kt
W.Decomp.*RWY 01: 10.5 kt HW 3.4 kt LCW
RWY 07: 2.3 kt HW 10.8 kt LCW
W.Rank350° ranks 14
Current wind is above 350° avg. (8.4)
Visibility9999 m
Phenomena:N/A
Clouds:Broken 033 Hf
Broken 060 Hf
Expected CloudBase > 2,400 ft AGL from Temp-Dew spread
Ceiling3,300 ft
Temp24°C (ISA +10)
Dew Point18°C (69% RH)
AAT22.8°C
QNH1010 hPa
Density Alt2,313 ft
Elevation725 ft
Report Wrong Elevation
Raw Report
KRFD 211854Z 35011KT 10SM BKN033 BKN060 24/18 A2983 RMK AO2 SLP097
T02440178 $=

Extra information for KRFD:More info

Metar Taf Metar & Taf Last 4 Metars F.Rules Stats Wind Profile Meteogram Temp Stats Airport Information Weather charts Add Link Nearby VenuesMetar ALERT Operation Metar Decoded Social comments

AIRNAV info for KRFD